sensor_id;sensor_type;location;lat;lon;timestamp;temperature;humidity
2621;DHT22;1320;48.128;11.592;2023-07-30T00:02:17;21.90;99.90
2621;DHT22;1320;48.128;11.592;2023-07-30T00:04:44;21.80;99.90
2621;DHT22;1320;48.128;11.592;2023-07-30T00:07:11;21.70;99.90
2621;DHT22;1320;48.128;11.592;2023-07-30T00:09:37;21.60;99.90
2621;DHT22;1320;48.128;11.592;2023-07-30T00:12:07;21.50;99.90
2621;DHT22;1320;48.128;11.592;2023-07-30T00:14:33;21.40;99.90
2621;DHT22;1320;48.128;11.592;2023-07-30T00:16:59;21.30;99.90
2621;DHT22;1320;48.128;11.592;2023-07-30T00:19:25;21.20;99.90
2621;DHT22;1320;48.128;11.592;2023-07-30T00:21:50;21.10;99.90
2621;DHT22;1320;48.128;11.592;2023-07-30T00:24:16;21.10;99.90
2621;DHT22;1320;48.128;11.592;2023-07-30T00:26:42;21.00;99.90
2621;DHT22;1320;48.128;11.592;2023-07-30T00:29:07;21.00;99.90
2621;DHT22;1320;48.128;11.592;2023-07-30T00:31:33;20.90;99.90
2621;DHT22;1320;48.128;11.592;2023-07-30T00:33:59;20.90;99.90
2621;DHT22;1320;48.128;11.592;2023-07-30T00:36:24;20.90;99.90
2621;DHT22;1320;48.128;11.592;2023-07-30T00:38:50;20.90;99.90
2621;DHT22;1320;48.128;11.592;2023-07-30T00:41:16;20.80;99.90
2621;DHT22;1320;48.128;11.592;2023-07-30T00:43:41;20.80;99.90
2621;DHT22;1320;48.128;11.592;2023-07-30T00:46:07;20.80;99.90
2621;DHT22;1320;48.128;11.592;2023-07-30T00:48:33;20.80;99.90
2621;DHT22;1320;48.128;11.592;2023-07-30T00:50:59;20.70;99.90
2621;DHT22;1320;48.128;11.592;2023-07-30T00:53:26;20.70;99.90
2621;DHT22;1320;48.128;11.592;2023-07-30T00:55:53;20.70;99.90
2621;DHT22;1320;48.128;11.592;2023-07-30T00:58:20;20.70;99.90
2621;DHT22;1320;48.128;11.592;2023-07-30T01:00:46;20.70;99.90
2621;DHT22;1320;48.128;11.592;2023-07-30T01:03:12;20.70;99.90
2621;DHT22;1320;48.128;11.592;2023-07-30T01:05:38;20.70;99.90
2621;DHT22;1320;48.128;11.592;2023-07-30T01:08:03;20.70;99.90
2621;DHT22;1320;48.128;11.592;2023-07-30T01:10:30;20.70;99.90
2621;DHT22;1320;48.128;11.592;2023-07-30T01:13:01;20.70;99.90
2621;DHT22;1320;48.128;11.592;2023-07-30T01:15:28;20.80;99.90
2621;DHT22;1320;48.128;11.592;2023-07-30T01:17:54;20.80;99.90
2621;DHT22;1320;48.128;11.592;2023-07-30T01:20:21;20.80;99.90
2621;DHT22;1320;48.128;11.592;2023-07-30T01:22:47;20.80;99.90
2621;DHT22;1320;48.128;11.592;2023-07-30T01:25:17;20.80;99.90
2621;DHT22;1320;48.128;11.592;2023-07-30T01:27:48;20.80;99.90
2621;DHT22;1320;48.128;11.592;2023-07-30T01:30:25;20.80;99.90
2621;DHT22;1320;48.128;11.592;2023-07-30T01:32:52;20.80;99.90
2621;DHT22;1320;48.128;11.592;2023-07-30T01:35:21;20.80;99.90
2621;DHT22;1320;48.128;11.592;2023-07-30T01:37:49;20.70;99.90
2621;DHT22;1320;48.128;11.592;2023-07-30T01:40:14;20.70;99.90
2621;DHT22;1320;48.128;11.592;2023-07-30T01:42:40;20.70;99.90
2621;DHT22;1320;48.128;11.592;2023-07-30T01:45:06;20.60;99.90
2621;DHT22;1320;48.128;11.592;2023-07-30T01:47:32;20.60;99.90
2621;DHT22;1320;48.128;11.592;2023-07-30T01:49:58;20.60;99.90
2621;DHT22;1320;48.128;11.592;2023-07-30T01:52:23;20.50;99.90
2621;DHT22;1320;48.128;11.592;2023-07-30T01:54:49;20.50;99.90
2621;DHT22;1320;48.128;11.592;2023-07-30T01:57:15;20.50;99.90
2621;DHT22;1320;48.128;11.592;2023-07-30T01:59:40;20.50;99.90
2621;DHT22;1320;48.128;11.592;2023-07-30T02:02:06;20.50;99.90
2621;DHT22;1320;48.128;11.592;2023-07-30T02:04:33;20.50;99.90
2621;DHT22;1320;48.128;11.592;2023-07-30T02:06:59;20.50;99.90
2621;DHT22;1320;48.128;11.592;2023-07-30T02:09:25;20.50;99.90
2621;DHT22;1320;48.128;11.592;2023-07-30T02:11:51;20.50;99.90
2621;DHT22;1320;48.128;11.592;2023-07-30T02:14:18;20.50;99.90
2621;DHT22;1320;48.128;11.592;2023-07-30T02:16:44;20.50;99.90
2621;DHT22;1320;48.128;11.592;2023-07-30T02:19:09;20.40;99.90
2621;DHT22;1320;48.128;11.592;2023-07-30T02:21:35;20.40;99.90
2621;DHT22;1320;48.128;11.592;2023-07-30T02:24:02;20.30;99.90
2621;DHT22;1320;48.128;11.592;2023-07-30T02:26:28;20.30;99.90
2621;DHT22;1320;48.128;11.592;2023-07-30T02:28:54;20.20;99.90
2621;DHT22;1320;48.128;11.592;2023-07-30T02:31:19;20.20;99.90
2621;DHT22;1320;48.128;11.592;2023-07-30T02:33:45;20.20;99.90
2621;DHT22;1320;48.128;11.592;2023-07-30T02:36:11;20.20;99.90
2621;DHT22;1320;48.128;11.592;2023-07-30T02:38:36;20.20;99.90
2621;DHT22;1320;48.128;11.592;2023-07-30T02:41:02;20.20;99.90
2621;DHT22;1320;48.128;11.592;2023-07-30T02:43:28;20.30;99.90
2621;DHT22;1320;48.128;11.592;2023-07-30T02:45:53;20.30;99.90
2621;DHT22;1320;48.128;11.592;2023-07-30T02:48:19;20.30;99.90
2621;DHT22;1320;48.128;11.592;2023-07-30T02:50:45;20.40;99.90
2621;DHT22;1320;48.128;11.592;2023-07-30T02:53:10;20.40;99.90
2621;DHT22;1320;48.128;11.592;2023-07-30T02:55:36;20.40;99.90
2621;DHT22;1320;48.128;11.592;2023-07-30T02:58:02;20.40;99.90
2621;DHT22;1320;48.128;11.592;2023-07-30T03:00:27;20.50;99.90
2621;DHT22;1320;48.128;11.592;2023-07-30T03:02:53;20.50;99.90
2621;DHT22;1320;48.128;11.592;2023-07-30T03:05:19;20.50;99.90
2621;DHT22;1320;48.128;11.592;2023-07-30T03:07:44;20.50;99.90
2621;DHT22;1320;48.128;11.592;2023-07-30T03:10:10;20.60;99.90
2621;DHT22;1320;48.128;11.592;2023-07-30T03:12:35;20.60;99.90
2621;DHT22;1320;48.128;11.592;2023-07-30T03:15:01;20.60;99.90
2621;DHT22;1320;48.128;11.592;2023-07-30T03:17:27;20.70;99.90
2621;DHT22;1320;48.128;11.592;2023-07-30T03:19:52;20.70;99.90
2621;DHT22;1320;48.128;11.592;2023-07-30T03:22:18;20.60;99.90
2621;DHT22;1320;48.128;11.592;2023-07-30T03:24:46;20.60;99.90
2621;DHT22;1320;48.128;11.592;2023-07-30T03:27:12;20.60;99.90
2621;DHT22;1320;48.128;11.592;2023-07-30T03:29:38;20.60;99.90
2621;DHT22;1320;48.128;11.592;2023-07-30T03:32:04;20.60;99.90
2621;DHT22;1320;48.128;11.592;2023-07-30T03:34:30;20.50;99.90
2621;DHT22;1320;48.128;11.592;2023-07-30T03:36:55;20.50;99.90
2621;DHT22;1320;48.128;11.592;2023-07-30T03:39:21;20.40;99.90
2621;DHT22;1320;48.128;11.592;2023-07-30T03:41:47;20.30;99.90
2621;DHT22;1320;48.128;11.592;2023-07-30T03:44:12;20.20;99.90
2621;DHT22;1320;48.128;11.592;2023-07-30T03:46:38;20.20;99.90
2621;DHT22;1320;48.128;11.592;2023-07-30T03:49:04;20.20;99.90
2621;DHT22;1320;48.128;11.592;2023-07-30T03:51:29;20.20;99.90
2621;DHT22;1320;48.128;11.592;2023-07-30T03:53:55;20.20;99.90
2621;DHT22;1320;48.128;11.592;2023-07-30T03:56:21;20.10;99.90
2621;DHT22;1320;48.128;11.592;2023-07-30T03:58:46;20.10;99.90
2621;DHT22;1320;48.128;11.592;2023-07-30T04:01:12;20.10;99.90
2621;DHT22;1320;48.128;11.592;2023-07-30T04:03:37;20.10;99.90
2621;DHT22;1320;48.128;11.592;2023-07-30T04:06:03;20.10;99.90
2621;DHT22;1320;48.128;11.592;2023-07-30T04:08:29;20.10;99.90
2621;DHT22;1320;48.128;11.592;2023-07-30T04:10:54;20.10;99.90
2621;DHT22;1320;48.128;11.592;2023-07-30T04:13:20;20.10;99.90
2621;DHT22;1320;48.128;11.592;2023-07-30T04:15:48;20.00;99.90
2621;DHT22;1320;48.128;11.592;2023-07-30T04:18:13;19.90;99.90
2621;DHT22;1320;48.128;11.592;2023-07-30T04:20:39;19.90;99.90
2621;DHT22;1320;48.128;11.592;2023-07-30T04:23:05;19.90;99.90
2621;DHT22;1320;48.128;11.592;2023-07-30T04:25:30;19.80;99.90
2621;DHT22;1320;48.128;11.592;2023-07-30T04:27:56;19.80;99.90
2621;DHT22;1320;48.128;11.592;2023-07-30T04:30:22;19.80;99.90
2621;DHT22;1320;48.128;11.592;2023-07-30T04:32:47;19.80;99.90
2621;DHT22;1320;48.128;11.592;2023-07-30T04:35:13;19.80;99.90
2621;DHT22;1320;48.128;11.592;2023-07-30T04:37:39;19.80;99.90
2621;DHT22;1320;48.128;11.592;2023-07-30T04:40:05;19.80;99.90
2621;DHT22;1320;48.128;11.592;2023-07-30T04:42:31;19.90;99.90
2621;DHT22;1320;48.128;11.592;2023-07-30T04:44:56;19.90;99.90
2621;DHT22;1320;48.128;11.592;2023-07-30T04:47:22;19.90;99.90
2621;DHT22;1320;48.128;11.592;2023-07-30T04:49:48;20.00;99.90
2621;DHT22;1320;48.128;11.592;2023-07-30T04:52:13;20.00;99.90
2621;DHT22;1320;48.128;11.592;2023-07-30T04:54:39;19.90;99.90
2621;DHT22;1320;48.128;11.592;2023-07-30T04:57:05;20.00;99.90
2621;DHT22;1320;48.128;11.592;2023-07-30T04:59:31;20.00;99.90
2621;DHT22;1320;48.128;11.592;2023-07-30T05:01:59;20.00;99.90
2621;DHT22;1320;48.128;11.592;2023-07-30T05:04:25;20.10;99.90
2621;DHT22;1320;48.128;11.592;2023-07-30T05:06:51;20.10;99.90
2621;DHT22;1320;48.128;11.592;2023-07-30T05:09:16;20.10;99.90
2621;DHT22;1320;48.128;11.592;2023-07-30T05:11:42;20.20;99.90
2621;DHT22;1320;48.128;11.592;2023-07-30T05:14:08;20.20;99.90
2621;DHT22;1320;48.128;11.592;2023-07-30T05:16:33;20.20;99.90
2621;DHT22;1320;48.128;11.592;2023-07-30T05:18:59;20.20;99.90
2621;DHT22;1320;48.128;11.592;2023-07-30T05:21:24;20.20;99.90
2621;DHT22;1320;48.128;11.592;2023-07-30T05:23:50;20.30;99.90
2621;DHT22;1320;48.128;11.592;2023-07-30T05:26:16;20.30;99.90
2621;DHT22;1320;48.128;11.592;2023-07-30T05:28:41;20.40;99.90
2621;DHT22;1320;48.128;11.592;2023-07-30T05:31:07;20.40;99.90
2621;DHT22;1320;48.128;11.592;2023-07-30T05:33:32;20.50;99.90
2621;DHT22;1320;48.128;11.592;2023-07-30T05:35:58;20.50;99.90
2621;DHT22;1320;48.128;11.592;2023-07-30T05:38:24;20.50;99.90
2621;DHT22;1320;48.128;11.592;2023-07-30T05:40:50;20.60;99.90
2621;DHT22;1320;48.128;11.592;2023-07-30T05:43:15;20.60;99.90
2621;DHT22;1320;48.128;11.592;2023-07-30T05:45:41;20.70;99.90
2621;DHT22;1320;48.128;11.592;2023-07-30T05:48:06;20.80;99.90
2621;DHT22;1320;48.128;11.592;2023-07-30T05:50:32;20.80;99.90
2621;DHT22;1320;48.128;11.592;2023-07-30T05:52:58;20.90;99.90
2621;DHT22;1320;48.128;11.592;2023-07-30T05:55:23;21.00;99.90
2621;DHT22;1320;48.128;11.592;2023-07-30T05:57:49;21.00;99.90
2621;DHT22;1320;48.128;11.592;2023-07-30T06:00:15;21.10;99.90
2621;DHT22;1320;48.128;11.592;2023-07-30T06:02:40;21.10;99.90
2621;DHT22;1320;48.128;11.592;2023-07-30T06:05:06;21.20;99.90
2621;DHT22;1320;48.128;11.592;2023-07-30T06:07:32;21.30;99.90
2621;DHT22;1320;48.128;11.592;2023-07-30T06:09:57;21.30;99.90
2621;DHT22;1320;48.128;11.592;2023-07-30T06:12:23;21.30;99.90
2621;DHT22;1320;48.128;11.592;2023-07-30T06:14:49;21.40;99.90
2621;DHT22;1320;48.128;11.592;2023-07-30T06:17:14;21.40;99.90
2621;DHT22;1320;48.128;11.592;2023-07-30T06:19:40;21.50;99.90
2621;DHT22;1320;48.128;11.592;2023-07-30T06:22:06;21.60;99.90
2621;DHT22;1320;48.128;11.592;2023-07-30T06:24:31;21.60;99.90
2621;DHT22;1320;48.128;11.592;2023-07-30T06:26:57;21.70;99.90
2621;DHT22;1320;48.128;11.592;2023-07-30T06:29:22;21.70;99.90
2621;DHT22;1320;48.128;11.592;2023-07-30T06:31:48;21.80;99.90
2621;DHT22;1320;48.128;11.592;2023-07-30T06:34:14;21.70;99.90
2621;DHT22;1320;48.128;11.592;2023-07-30T06:36:40;21.80;99.90
2621;DHT22;1320;48.128;11.592;2023-07-30T06:39:05;21.90;99.90
2621;DHT22;1320;48.128;11.592;2023-07-30T06:41:31;21.90;99.90
2621;DHT22;1320;48.128;11.592;2023-07-30T06:43:57;22.00;99.90
2621;DHT22;1320;48.128;11.592;2023-07-30T06:46:22;22.10;99.90
2621;DHT22;1320;48.128;11.592;2023-07-30T06:48:48;22.20;99.90
2621;DHT22;1320;48.128;11.592;2023-07-30T06:51:14;22.30;99.90
2621;DHT22;1320;48.128;11.592;2023-07-30T06:53:39;22.40;99.90
2621;DHT22;1320;48.128;11.592;2023-07-30T06:56:05;22.40;99.90
2621;DHT22;1320;48.128;11.592;2023-07-30T06:58:31;22.40;99.90
2621;DHT22;1320;48.128;11.592;2023-07-30T07:00:56;22.50;99.90
2621;DHT22;1320;48.128;11.592;2023-07-30T07:03:22;22.60;99.90
2621;DHT22;1320;48.128;11.592;2023-07-30T07:05:56;22.60;99.90
2621;DHT22;1320;48.128;11.592;2023-07-30T07:08:23;22.70;99.90
2621;DHT22;1320;48.128;11.592;2023-07-30T07:10:49;22.80;99.90
2621;DHT22;1320;48.128;11.592;2023-07-30T07:13:15;22.90;99.90
2621;DHT22;1320;48.128;11.592;2023-07-30T07:15:41;23.00;99.90
2621;DHT22;1320;48.128;11.592;2023-07-30T07:18:07;23.00;99.90
2621;DHT22;1320;48.128;11.592;2023-07-30T07:20:33;23.00;99.90
2621;DHT22;1320;48.128;11.592;2023-07-30T07:22:59;23.10;99.90
2621;DHT22;1320;48.128;11.592;2023-07-30T07:25:24;23.20;99.90
2621;DHT22;1320;48.128;11.592;2023-07-30T07:27:50;23.30;99.90
2621;DHT22;1320;48.128;11.592;2023-07-30T07:30:16;23.40;99.90
2621;DHT22;1320;48.128;11.592;2023-07-30T07:32:42;23.40;99.90
2621;DHT22;1320;48.128;11.592;2023-07-30T07:35:08;23.50;99.90
2621;DHT22;1320;48.128;11.592;2023-07-30T07:37:34;23.60;99.90
2621;DHT22;1320;48.128;11.592;2023-07-30T07:39:59;23.80;99.90
2621;DHT22;1320;48.128;11.592;2023-07-30T07:42:25;23.90;99.90
2621;DHT22;1320;48.128;11.592;2023-07-30T07:44:51;24.00;99.90
2621;DHT22;1320;48.128;11.592;2023-07-30T07:47:16;24.10;99.90
2621;DHT22;1320;48.128;11.592;2023-07-30T07:49:42;24.10;99.90
2621;DHT22;1320;48.128;11.592;2023-07-30T07:52:08;24.10;99.90
2621;DHT22;1320;48.128;11.592;2023-07-30T07:54:34;24.10;99.90
2621;DHT22;1320;48.128;11.592;2023-07-30T07:57:00;24.10;99.90
2621;DHT22;1320;48.128;11.592;2023-07-30T07:59:25;24.20;99.90
2621;DHT22;1320;48.128;11.592;2023-07-30T08:01:53;24.30;99.90
2621;DHT22;1320;48.128;11.592;2023-07-30T08:04:18;24.30;99.90
2621;DHT22;1320;48.128;11.592;2023-07-30T08:06:46;24.20;99.90
2621;DHT22;1320;48.128;11.592;2023-07-30T08:09:13;24.20;99.90
2621;DHT22;1320;48.128;11.592;2023-07-30T08:11:38;24.20;99.90
2621;DHT22;1320;48.128;11.592;2023-07-30T08:14:04;24.40;99.90
2621;DHT22;1320;48.128;11.592;2023-07-30T08:16:30;24.60;99.90
2621;DHT22;1320;48.128;11.592;2023-07-30T08:18:55;24.80;99.90
2621;DHT22;1320;48.128;11.592;2023-07-30T08:21:21;25.10;99.90
2621;DHT22;1320;48.128;11.592;2023-07-30T08:23:47;25.10;99.90
2621;DHT22;1320;48.128;11.592;2023-07-30T08:26:12;25.10;99.90
2621;DHT22;1320;48.128;11.592;2023-07-30T08:28:38;25.10;99.90
2621;DHT22;1320;48.128;11.592;2023-07-30T08:31:05;25.00;99.90
2621;DHT22;1320;48.128;11.592;2023-07-30T08:33:32;25.30;99.90
2621;DHT22;1320;48.128;11.592;2023-07-30T08:35:59;25.60;99.90
2621;DHT22;1320;48.128;11.592;2023-07-30T08:38:25;25.60;99.90
2621;DHT22;1320;48.128;11.592;2023-07-30T08:40:51;25.50;99.90
2621;DHT22;1320;48.128;11.592;2023-07-30T08:43:18;25.30;99.90
2621;DHT22;1320;48.128;11.592;2023-07-30T08:45:44;25.20;99.90
2621;DHT22;1320;48.128;11.592;2023-07-30T08:48:10;25.10;99.90
2621;DHT22;1320;48.128;11.592;2023-07-30T08:50:36;24.90;99.90
2621;DHT22;1320;48.128;11.592;2023-07-30T08:53:03;24.90;99.90
2621;DHT22;1320;48.128;11.592;2023-07-30T08:55:29;25.30;99.90
2621;DHT22;1320;48.128;11.592;2023-07-30T08:58:01;25.90;99.90
2621;DHT22;1320;48.128;11.592;2023-07-30T09:00:31;26.40;99.90
2621;DHT22;1320;48.128;11.592;2023-07-30T09:03:00;26.90;99.90
2621;DHT22;1320;48.128;11.592;2023-07-30T09:05:26;27.30;99.90
2621;DHT22;1320;48.128;11.592;2023-07-30T09:07:55;27.40;99.90
2621;DHT22;1320;48.128;11.592;2023-07-30T09:10:21;27.20;99.90
2621;DHT22;1320;48.128;11.592;2023-07-30T09:12:52;27.10;99.90
2621;DHT22;1320;48.128;11.592;2023-07-30T09:15:20;27.30;99.90
2621;DHT22;1320;48.128;11.592;2023-07-30T09:17:55;27.60;99.90
2621;DHT22;1320;48.128;11.592;2023-07-30T09:20:21;28.10;98.70
2621;DHT22;1320;48.128;11.592;2023-07-30T09:22:46;28.50;98.70
2621;DHT22;1320;48.128;11.592;2023-07-30T09:25:14;29.00;97.40
2621;DHT22;1320;48.128;11.592;2023-07-30T09:27:50;29.20;96.00
2621;DHT22;1320;48.128;11.592;2023-07-30T09:30:25;29.40;95.10
2621;DHT22;1320;48.128;11.592;2023-07-30T09:32:54;29.20;95.30
2621;DHT22;1320;48.128;11.592;2023-07-30T09:35:20;29.10;95.70
2621;DHT22;1320;48.128;11.592;2023-07-30T09:37:46;29.20;94.60
2621;DHT22;1320;48.128;11.592;2023-07-30T09:40:14;29.10;94.50
2621;DHT22;1320;48.128;11.592;2023-07-30T09:42:48;29.00;94.00
2621;DHT22;1320;48.128;11.592;2023-07-30T09:45:18;28.90;94.10
2621;DHT22;1320;48.128;11.592;2023-07-30T09:47:48;28.70;94.10
2621;DHT22;1320;48.128;11.592;2023-07-30T09:50:14;28.70;94.30
2621;DHT22;1320;48.128;11.592;2023-07-30T09:52:41;28.80;94.60
2621;DHT22;1320;48.128;11.592;2023-07-30T09:55:08;29.10;94.10
2621;DHT22;1320;48.128;11.592;2023-07-30T09:57:34;29.10;93.90
2621;DHT22;1320;48.128;11.592;2023-07-30T10:00:01;29.10;94.10
2621;DHT22;1320;48.128;11.592;2023-07-30T10:02:28;28.70;93.70
2621;DHT22;1320;48.128;11.592;2023-07-30T10:04:57;28.40;94.80
2621;DHT22;1320;48.128;11.592;2023-07-30T10:07:25;28.30;94.50
2621;DHT22;1320;48.128;11.592;2023-07-30T10:09:53;28.10;94.80
2621;DHT22;1320;48.128;11.592;2023-07-30T10:12:25;28.10;94.70
2621;DHT22;1320;48.128;11.592;2023-07-30T10:14:52;28.10;93.90
2621;DHT22;1320;48.128;11.592;2023-07-30T10:17:18;28.00;93.70
2621;DHT22;1320;48.128;11.592;2023-07-30T10:25:13;27.10;93.50
2621;DHT22;1320;48.128;11.592;2023-07-30T10:27:40;26.30;94.40
2621;DHT22;1320;48.128;11.592;2023-07-30T10:30:31;25.50;95.90
2621;DHT22;1320;48.128;11.592;2023-07-30T10:40:40;24.80;99.00
2621;DHT22;1320;48.128;11.592;2023-07-30T10:43:18;25.20;99.00
2621;DHT22;1320;48.128;11.592;2023-07-30T10:45:50;25.60;98.70
2621;DHT22;1320;48.128;11.592;2023-07-30T10:48:17;26.00;98.50
2621;DHT22;1320;48.128;11.592;2023-07-30T10:50:43;26.40;98.10
2621;DHT22;1320;48.128;11.592;2023-07-30T10:53:14;26.70;97.20
2621;DHT22;1320;48.128;11.592;2023-07-30T10:55:42;26.80;97.40
2621;DHT22;1320;48.128;11.592;2023-07-30T10:58:08;27.00;97.10
2621;DHT22;1320;48.128;11.592;2023-07-30T11:00:33;27.20;97.20
2621;DHT22;1320;48.128;11.592;2023-07-30T11:02:59;27.40;96.80
2621;DHT22;1320;48.128;11.592;2023-07-30T11:05:24;27.70;96.70
2621;DHT22;1320;48.128;11.592;2023-07-30T11:07:51;28.00;96.80
2621;DHT22;1320;48.128;11.592;2023-07-30T11:10:17;28.10;96.30
2621;DHT22;1320;48.128;11.592;2023-07-30T11:12:43;28.00;95.80
2621;DHT22;1320;48.128;11.592;2023-07-30T11:15:09;28.00;95.50
2621;DHT22;1320;48.128;11.592;2023-07-30T11:17:35;28.00;95.60
2621;DHT22;1320;48.128;11.592;2023-07-30T11:20:01;27.90;95.40
2621;DHT22;1320;48.128;11.592;2023-07-30T11:22:31;27.90;95.60
2621;DHT22;1320;48.128;11.592;2023-07-30T11:24:58;27.80;95.10
2621;DHT22;1320;48.128;11.592;2023-07-30T11:27:23;27.70;94.20
2621;DHT22;1320;48.128;11.592;2023-07-30T11:29:56;27.50;94.90
2621;DHT22;1320;48.128;11.592;2023-07-30T11:32:22;27.60;95.60
2621;DHT22;1320;48.128;11.592;2023-07-30T11:34:53;27.80;94.10
2621;DHT22;1320;48.128;11.592;2023-07-30T11:37:20;28.00;94.00
2621;DHT22;1320;48.128;11.592;2023-07-30T11:39:49;28.20;93.80
2621;DHT22;1320;48.128;11.592;2023-07-30T11:42:15;28.30;93.80
2621;DHT22;1320;48.128;11.592;2023-07-30T11:44:41;28.30;94.20
2621;DHT22;1320;48.128;11.592;2023-07-30T11:47:07;28.20;93.10
2621;DHT22;1320;48.128;11.592;2023-07-30T11:49:34;28.10;93.30
2621;DHT22;1320;48.128;11.592;2023-07-30T11:52:09;28.00;92.90
2621;DHT22;1320;48.128;11.592;2023-07-30T11:54:36;27.80;94.30
2621;DHT22;1320;48.128;11.592;2023-07-30T11:57:01;27.60;95.50
2621;DHT22;1320;48.128;11.592;2023-07-30T11:59:27;27.40;96.00
2621;DHT22;1320;48.128;11.592;2023-07-30T12:01:53;27.30;95.80
2621;DHT22;1320;48.128;11.592;2023-07-30T12:04:19;27.20;96.40
2621;DHT22;1320;48.128;11.592;2023-07-30T12:06:50;27.30;96.40
2621;DHT22;1320;48.128;11.592;2023-07-30T12:09:22;27.40;96.60
2621;DHT22;1320;48.128;11.592;2023-07-30T12:11:58;27.50;96.50
2621;DHT22;1320;48.128;11.592;2023-07-30T12:14:28;27.80;96.00
2621;DHT22;1320;48.128;11.592;2023-07-30T12:16:59;28.10;96.50
2621;DHT22;1320;48.128;11.592;2023-07-30T12:19:24;28.40;95.30
2621;DHT22;1320;48.128;11.592;2023-07-30T12:21:50;28.70;94.70
2621;DHT22;1320;48.128;11.592;2023-07-30T12:24:16;29.10;94.70
2621;DHT22;1320;48.128;11.592;2023-07-30T12:26:42;29.10;94.00
2621;DHT22;1320;48.128;11.592;2023-07-30T12:29:07;29.10;94.40
2621;DHT22;1320;48.128;11.592;2023-07-30T12:31:33;29.20;94.60
2621;DHT22;1320;48.128;11.592;2023-07-30T12:33:59;29.30;94.40
2621;DHT22;1320;48.128;11.592;2023-07-30T12:36:24;29.50;94.60
2621;DHT22;1320;48.128;11.592;2023-07-30T12:38:51;29.70;94.50
2621;DHT22;1320;48.128;11.592;2023-07-30T12:41:19;29.80;93.80
2621;DHT22;1320;48.128;11.592;2023-07-30T12:43:54;29.70;94.10
2621;DHT22;1320;48.128;11.592;2023-07-30T12:46:21;29.50;94.30
2621;DHT22;1320;48.128;11.592;2023-07-30T12:48:47;29.50;94.60
2621;DHT22;1320;48.128;11.592;2023-07-30T12:51:13;29.40;94.90
2621;DHT22;1320;48.128;11.592;2023-07-30T12:53:38;29.30;95.10
2621;DHT22;1320;48.128;11.592;2023-07-30T12:56:04;29.20;95.20
2621;DHT22;1320;48.128;11.592;2023-07-30T12:58:30;29.10;95.60
2621;DHT22;1320;48.128;11.592;2023-07-30T13:00:55;29.00;95.60
2621;DHT22;1320;48.128;11.592;2023-07-30T13:03:21;28.80;95.90
2621;DHT22;1320;48.128;11.592;2023-07-30T13:05:47;28.80;96.20
2621;DHT22;1320;48.128;11.592;2023-07-30T13:08:12;28.90;96.20
2621;DHT22;1320;48.128;11.592;2023-07-30T13:10:38;29.10;96.60
2621;DHT22;1320;48.128;11.592;2023-07-30T13:13:03;29.30;96.20
2621;DHT22;1320;48.128;11.592;2023-07-30T13:15:29;29.50;96.20
2621;DHT22;1320;48.128;11.592;2023-07-30T13:17:55;29.50;96.20
2621;DHT22;1320;48.128;11.592;2023-07-30T13:20:20;29.60;95.70
2621;DHT22;1320;48.128;11.592;2023-07-30T13:22:46;29.50;95.40
2621;DHT22;1320;48.128;11.592;2023-07-30T13:25:12;29.40;95.00
2621;DHT22;1320;48.128;11.592;2023-07-30T13:27:38;29.30;95.20
2621;DHT22;1320;48.128;11.592;2023-07-30T13:30:04;29.20;96.10
2621;DHT22;1320;48.128;11.592;2023-07-30T13:32:29;29.10;95.50
2621;DHT22;1320;48.128;11.592;2023-07-30T13:34:55;29.10;95.30
2621;DHT22;1320;48.128;11.592;2023-07-30T13:37:21;28.80;95.50
2621;DHT22;1320;48.128;11.592;2023-07-30T13:39:46;28.60;95.60
2621;DHT22;1320;48.128;11.592;2023-07-30T13:42:12;28.30;96.00
2621;DHT22;1320;48.128;11.592;2023-07-30T13:44:37;28.10;96.40
2621;DHT22;1320;48.128;11.592;2023-07-30T13:47:03;27.80;96.90
2621;DHT22;1320;48.128;11.592;2023-07-30T13:49:29;27.50;97.60
2621;DHT22;1320;48.128;11.592;2023-07-30T13:51:55;27.20;99.90
2621;DHT22;1320;48.128;11.592;2023-07-30T13:54:20;26.50;99.90
2621;DHT22;1320;48.128;11.592;2023-07-30T13:56:46;25.50;99.90
2621;DHT22;1320;48.128;11.592;2023-07-30T13:59:12;24.80;99.90
2621;DHT22;1320;48.128;11.592;2023-07-30T14:01:37;24.40;99.90
2621;DHT22;1320;48.128;11.592;2023-07-30T14:04:03;24.10;99.90
2621;DHT22;1320;48.128;11.592;2023-07-30T14:06:29;23.90;99.90
2621;DHT22;1320;48.128;11.592;2023-07-30T14:08:54;23.90;99.90
2621;DHT22;1320;48.128;11.592;2023-07-30T14:11:20;24.00;99.90
2621;DHT22;1320;48.128;11.592;2023-07-30T14:13:46;24.10;99.90
2621;DHT22;1320;48.128;11.592;2023-07-30T14:16:11;24.30;99.90
2621;DHT22;1320;48.128;11.592;2023-07-30T14:18:37;24.50;99.90
2621;DHT22;1320;48.128;11.592;2023-07-30T14:21:04;24.80;99.90
2621;DHT22;1320;48.128;11.592;2023-07-30T14:23:30;25.00;99.90
2621;DHT22;1320;48.128;11.592;2023-07-30T14:25:57;25.30;99.90
2621;DHT22;1320;48.128;11.592;2023-07-30T14:28:23;25.50;99.90
2621;DHT22;1320;48.128;11.592;2023-07-30T14:30:49;25.80;99.90
2621;DHT22;1320;48.128;11.592;2023-07-30T14:33:14;26.10;99.90
2621;DHT22;1320;48.128;11.592;2023-07-30T14:35:40;26.40;99.90
2621;DHT22;1320;48.128;11.592;2023-07-30T14:38:06;26.60;99.90
2621;DHT22;1320;48.128;11.592;2023-07-30T14:40:32;26.80;99.90
2621;DHT22;1320;48.128;11.592;2023-07-30T14:42:58;27.00;99.90
2621;DHT22;1320;48.128;11.592;2023-07-30T14:45:24;27.20;99.90
2621;DHT22;1320;48.128;11.592;2023-07-30T14:47:50;27.40;99.90
2621;DHT22;1320;48.128;11.592;2023-07-30T14:50:16;27.70;99.90
2621;DHT22;1320;48.128;11.592;2023-07-30T14:52:41;27.90;99.90
2621;DHT22;1320;48.128;11.592;2023-07-30T14:55:07;28.00;99.90
2621;DHT22;1320;48.128;11.592;2023-07-30T14:57:33;28.10;99.90
2621;DHT22;1320;48.128;11.592;2023-07-30T14:59:59;28.30;99.90
2621;DHT22;1320;48.128;11.592;2023-07-30T15:02:28;28.10;99.90
2621;DHT22;1320;48.128;11.592;2023-07-30T15:04:54;28.00;99.90
2621;DHT22;1320;48.128;11.592;2023-07-30T15:07:20;27.90;99.90
2621;DHT22;1320;48.128;11.592;2023-07-30T15:09:51;27.70;99.90
2621;DHT22;1320;48.128;11.592;2023-07-30T15:12:17;27.50;99.90
2621;DHT22;1320;48.128;11.592;2023-07-30T15:14:43;27.40;99.90
2621;DHT22;1320;48.128;11.592;2023-07-30T15:17:08;27.30;99.90
2621;DHT22;1320;48.128;11.592;2023-07-30T15:19:34;27.40;99.90
2621;DHT22;1320;48.128;11.592;2023-07-30T15:22:00;27.70;99.90
2621;DHT22;1320;48.128;11.592;2023-07-30T15:24:26;28.10;99.90
2621;DHT22;1320;48.128;11.592;2023-07-30T15:26:52;28.30;99.90
2621;DHT22;1320;48.128;11.592;2023-07-30T15:29:17;28.30;97.10
2621;DHT22;1320;48.128;11.592;2023-07-30T15:31:44;28.30;95.20
2621;DHT22;1320;48.128;11.592;2023-07-30T15:34:10;28.50;96.00
2621;DHT22;1320;48.128;11.592;2023-07-30T15:36:37;28.90;97.00
2621;DHT22;1320;48.128;11.592;2023-07-30T15:39:03;29.30;94.30
2621;DHT22;1320;48.128;11.592;2023-07-30T15:41:29;29.60;92.30
2621;DHT22;1320;48.128;11.592;2023-07-30T15:43:54;29.90;90.50
2621;DHT22;1320;48.128;11.592;2023-07-30T15:46:20;30.00;91.70
2621;DHT22;1320;48.128;11.592;2023-07-30T15:48:49;30.30;90.20
2621;DHT22;1320;48.128;11.592;2023-07-30T15:51:14;30.60;90.50
2621;DHT22;1320;48.128;11.592;2023-07-30T15:53:40;30.80;88.30